createdAt,value
2023-05-25T00:02:10.187Z,27.11
2023-05-25T00:04:39.504Z,27.17
2023-05-25T00:07:08.069Z,27.24
2023-05-25T00:09:37.393Z,27.29
2023-05-25T00:12:06.058Z,27.34
2023-05-25T00:14:34.909Z,27.40
2023-05-25T00:17:05.152Z,27.44
2023-05-25T00:19:34.953Z,27.49
2023-05-25T00:22:03.595Z,27.56
2023-05-25T00:24:34.441Z,27.60
2023-05-25T00:27:04.139Z,27.66
2023-05-25T00:29:32.552Z,27.72
2023-05-25T00:32:01.113Z,27.76
2023-05-25T00:34:29.741Z,27.82
2023-05-25T00:36:58.614Z,27.88
2023-05-25T00:39:27.205Z,27.91
2023-05-25T00:41:57.605Z,27.96
2023-05-25T00:44:26.072Z,28.02
2023-05-25T00:46:55.269Z,28.07
2023-05-25T00:49:24.546Z,28.12
2023-05-25T00:51:54.047Z,28.17
2023-05-25T00:54:22.973Z,28.23
2023-05-25T00:57:11.598Z,28.30
2023-05-25T00:59:52.965Z,28.35
2023-05-25T01:02:21.871Z,28.41
2023-05-25T01:04:55.438Z,28.46
2023-05-25T01:07:28.864Z,28.52
2023-05-25T01:10:03.472Z,28.58
2023-05-25T01:12:41.994Z,28.65
2023-05-25T01:15:11.438Z,28.70
2023-05-25T01:17:39.985Z,28.75
2023-05-25T01:20:11.810Z,28.82
2023-05-25T01:22:52.799Z,28.89
2023-05-25T01:25:26.453Z,28.94
2023-05-25T01:28:06.097Z,28.98
2023-05-25T01:30:36.754Z,29.03
2023-05-25T01:33:06.595Z,29.09
2023-05-25T01:35:36.692Z,29.14
2023-05-25T01:38:05.277Z,29.18
2023-05-25T01:40:33.885Z,29.21
2023-05-25T01:43:02.372Z,29.28
2023-05-25T01:45:31.186Z,29.33
2023-05-25T01:48:16.021Z,29.40
2023-05-25T01:50:56.127Z,29.49
2023-05-25T01:53:30.443Z,29.56
2023-05-25T01:56:06.482Z,29.64
2023-05-25T01:58:43.463Z,29.68
2023-05-25T02:01:15.313Z,29.78
2023-05-25T02:03:46.016Z,29.80
2023-05-25T02:06:14.467Z,29.87
2023-05-25T02:08:43.003Z,29.96
2023-05-25T02:11:11.916Z,30.00
2023-05-25T02:13:40.348Z,30.05
2023-05-25T02:16:09.856Z,30.12
2023-05-25T02:18:38.522Z,30.23
2023-05-25T02:21:07.052Z,30.31
2023-05-25T02:23:35.602Z,30.38
2023-05-25T02:26:04.058Z,30.47
2023-05-25T02:28:32.531Z,30.56
2023-05-25T02:31:01.124Z,30.62
2023-05-25T02:33:29.590Z,30.70
2023-05-25T02:35:58.076Z,30.75
2023-05-25T02:38:26.713Z,30.75
2023-05-25T02:40:55.233Z,30.73
2023-05-25T02:43:23.764Z,30.75
2023-05-25T02:45:52.252Z,30.78
2023-05-25T02:48:20.730Z,30.78
2023-05-25T02:50:49.240Z,30.84
2023-05-25T02:53:17.805Z,30.95
2023-05-25T02:55:46.536Z,31.05
2023-05-25T02:58:15.187Z,31.13
2023-05-25T03:00:43.896Z,31.22
2023-05-25T03:03:12.415Z,31.31
2023-05-25T03:05:41.141Z,31.37
2023-05-25T03:08:09.659Z,31.44
2023-05-25T03:10:38.192Z,31.53
2023-05-25T03:13:06.637Z,31.54
2023-05-25T03:15:35.325Z,31.60
2023-05-25T03:18:03.873Z,31.64
2023-05-25T03:20:33.922Z,31.71
2023-05-25T03:23:02.544Z,31.75
2023-05-25T03:25:31.049Z,31.72
2023-05-25T03:27:59.578Z,31.67
2023-05-25T03:30:28.271Z,31.62
2023-05-25T03:32:56.766Z,31.59
2023-05-25T03:35:25.243Z,31.57
2023-05-25T03:37:54.026Z,31.60
2023-05-25T03:40:22.583Z,31.74
2023-05-25T03:42:51.363Z,31.89
2023-05-25T03:45:19.842Z,32.01
2023-05-25T03:47:49.040Z,32.07
2023-05-25T03:50:17.553Z,32.11
2023-05-25T03:52:46.021Z,32.09
2023-05-25T03:55:16.479Z,32.08
2023-05-25T03:57:45.057Z,32.06
2023-05-25T04:00:14.210Z,32.04
2023-05-25T04:02:42.848Z,32.01
2023-05-25T04:05:11.609Z,32.06
2023-05-25T04:07:40.139Z,32.05
2023-05-25T04:10:10.019Z,32.11
2023-05-25T04:12:38.783Z,32.20
2023-05-25T04:15:10.246Z,32.34
2023-05-25T04:17:39.520Z,32.47
2023-05-25T04:20:12.054Z,32.62
2023-05-25T04:22:40.871Z,32.71
2023-05-25T04:25:09.830Z,32.79
2023-05-25T04:27:38.552Z,32.88
2023-05-25T04:30:07.777Z,33.01
2023-05-25T04:32:38.342Z,33.14
2023-05-25T04:35:07.225Z,33.30
2023-05-25T04:37:38.006Z,33.40
2023-05-25T04:40:12.738Z,33.42
2023-05-25T04:42:42.669Z,33.42
2023-05-25T04:45:11.721Z,33.54
2023-05-25T04:47:42.143Z,33.52
2023-05-25T04:50:13.263Z,33.67
2023-05-25T04:52:41.880Z,33.78
2023-05-25T04:55:10.925Z,33.92
2023-05-25T04:57:39.440Z,34.03
2023-05-25T05:00:10.958Z,33.90
2023-05-25T05:02:39.486Z,34.08
2023-05-25T05:05:08.706Z,34.23
2023-05-25T05:07:38.231Z,34.33
2023-05-25T05:10:07.392Z,34.45
2023-05-25T05:12:35.917Z,34.55
2023-05-25T05:15:04.477Z,34.57
2023-05-25T05:17:33.053Z,34.55
2023-05-25T05:20:01.569Z,34.63
2023-05-25T05:22:30.321Z,34.75
2023-05-25T05:24:58.869Z,34.82
2023-05-25T05:27:27.927Z,34.81
2023-05-25T05:29:56.471Z,34.72
2023-05-25T05:32:24.962Z,34.80
2023-05-25T05:34:53.468Z,34.81
2023-05-25T05:37:22.158Z,34.61
2023-05-25T05:39:53.213Z,34.53
2023-05-25T05:42:21.686Z,34.38
2023-05-25T05:44:50.149Z,34.50
2023-05-25T05:47:18.700Z,34.66
2023-05-25T05:49:48.323Z,34.85
2023-05-25T05:52:16.943Z,35.08
2023-05-25T05:54:45.411Z,35.01
2023-05-25T05:57:14.276Z,35.14
2023-05-25T05:59:44.107Z,35.27
2023-05-25T06:02:12.736Z,35.44
2023-05-25T06:04:41.566Z,35.42
2023-05-25T06:07:10.040Z,35.34
2023-05-25T06:09:38.537Z,35.34
2023-05-25T06:12:08.133Z,35.31
2023-05-25T06:14:36.655Z,35.46
2023-05-25T06:17:05.285Z,35.60
2023-05-25T06:19:33.817Z,35.58
2023-05-25T06:22:02.364Z,35.44
2023-05-25T06:24:32.240Z,35.29
2023-05-25T06:27:00.793Z,35.24
2023-05-25T06:29:29.374Z,35.07
2023-05-25T06:31:58.580Z,34.93
2023-05-25T06:34:27.073Z,34.79
2023-05-25T06:36:55.573Z,34.75
2023-05-25T06:39:24.035Z,34.65
2023-05-25T06:41:52.487Z,34.61
2023-05-25T06:44:21.072Z,34.55
2023-05-25T06:46:49.620Z,34.50
2023-05-25T06:49:18.125Z,34.44
2023-05-25T06:51:47.075Z,34.40
2023-05-25T06:54:16.343Z,34.34
2023-05-25T06:56:45.632Z,34.29
2023-05-25T06:59:14.099Z,34.21
2023-05-25T07:01:42.627Z,34.08
2023-05-25T07:04:11.297Z,33.97
2023-05-25T07:06:39.769Z,33.90
2023-05-25T07:09:08.226Z,33.76
2023-05-25T07:11:36.747Z,33.64
2023-05-25T07:14:05.191Z,33.51
2023-05-25T07:16:34.264Z,33.42
2023-05-25T07:19:02.824Z,33.36
2023-05-25T07:21:34.744Z,33.27
2023-05-25T07:24:03.488Z,33.25
2023-05-25T07:26:35.793Z,33.26
2023-05-25T07:29:05.021Z,33.41
2023-05-25T07:31:33.614Z,33.71
2023-05-25T07:34:02.120Z,33.99
2023-05-25T07:36:30.624Z,34.13
2023-05-25T07:38:59.680Z,34.16
2023-05-25T07:41:28.378Z,34.09
2023-05-25T07:43:56.880Z,33.99
2023-05-25T07:46:26.839Z,33.88
2023-05-25T07:48:56.039Z,33.76
2023-05-25T07:51:27.091Z,33.64
2023-05-25T07:53:56.283Z,33.47
2023-05-25T07:56:25.212Z,33.41
2023-05-25T07:58:53.686Z,33.44
2023-05-25T08:01:22.908Z,33.54
2023-05-25T08:03:52.537Z,33.74
2023-05-25T08:06:21.744Z,33.94
2023-05-25T08:08:52.158Z,34.14
2023-05-25T08:11:26.273Z,34.32
2023-05-25T08:13:54.809Z,34.48
2023-05-25T08:16:24.356Z,34.55
2023-05-25T08:18:53.514Z,34.59
2023-05-25T08:21:22.072Z,34.64
2023-05-25T08:23:51.691Z,34.66
2023-05-25T08:26:37.998Z,34.69
2023-05-25T08:29:09.562Z,34.75
2023-05-25T08:31:38.348Z,34.78
2023-05-25T08:34:06.943Z,34.76
2023-05-25T08:36:36.901Z,34.70
2023-05-25T08:39:05.795Z,34.61
2023-05-25T08:41:42.795Z,34.54
2023-05-25T08:44:12.190Z,34.50
2023-05-25T08:46:40.651Z,34.42
2023-05-25T08:49:14.624Z,34.28
2023-05-25T08:51:54.970Z,34.17
2023-05-25T08:54:31.343Z,34.02
2023-05-25T08:57:25.054Z,33.80
2023-05-25T09:00:08.251Z,33.67
2023-05-25T09:02:43.241Z,33.39
2023-05-25T09:05:11.784Z,33.13
2023-05-25T09:07:41.155Z,32.79
2023-05-25T09:10:12.125Z,32.55
2023-05-25T09:12:42.941Z,32.25
2023-05-25T09:15:13.292Z,32.00
2023-05-25T09:17:42.417Z,31.68
2023-05-25T09:20:14.712Z,31.48
2023-05-25T09:22:43.615Z,31.16
2023-05-25T09:25:12.942Z,30.94
2023-05-25T09:27:42.474Z,30.72
2023-05-25T09:30:11.485Z,30.54
2023-05-25T09:32:40.552Z,30.36
2023-05-25T09:35:13.777Z,30.16
2023-05-25T09:37:43.552Z,30.01
2023-05-25T09:40:13.490Z,29.89
2023-05-25T09:42:43.841Z,29.76
2023-05-25T09:45:12.393Z,29.62
2023-05-25T09:47:42.265Z,29.48
2023-05-25T09:50:11.523Z,29.35
2023-05-25T09:52:40.153Z,29.20
2023-05-25T09:55:11.793Z,29.09
2023-05-25T09:57:42.344Z,29.01
2023-05-25T10:00:12.851Z,28.98
2023-05-25T10:02:41.950Z,28.99
2023-05-25T10:05:10.745Z,28.99
2023-05-25T10:07:41.456Z,28.99
2023-05-25T10:10:11.636Z,28.99
2023-05-25T10:12:43.457Z,29.01
2023-05-25T10:15:15.062Z,29.01
2023-05-25T10:17:54.013Z,28.99
2023-05-25T10:20:27.458Z,28.99
2023-05-25T10:23:13.016Z,28.98
2023-05-25T10:25:52.306Z,28.98
2023-05-25T10:28:28.230Z,28.97
2023-05-25T10:30:59.802Z,28.96
2023-05-25T10:38:36.988Z,28.88
2023-05-25T10:41:07.123Z,28.85
2023-05-25T10:43:35.834Z,28.81
2023-05-25T10:46:05.723Z,28.80
2023-05-25T10:48:39.491Z,28.79
2023-05-25T10:51:10.075Z,28.77
2023-05-25T10:53:39.741Z,28.75
2023-05-25T10:56:14.440Z,28.74
2023-05-25T10:58:47.547Z,28.73
2023-05-25T11:01:18.089Z,28.72
2023-05-25T11:03:49.443Z,28.69
2023-05-25T11:06:23.049Z,28.69
2023-05-25T11:08:52.044Z,28.67
2023-05-25T11:11:20.830Z,28.66
2023-05-25T11:13:50.988Z,28.64
2023-05-25T11:16:38.766Z,28.65
2023-05-25T11:19:16.406Z,28.65
2023-05-25T11:21:46.147Z,28.62
2023-05-25T11:24:17.171Z,28.61
2023-05-25T11:27:06.994Z,28.59
2023-05-25T11:29:38.233Z,28.56
2023-05-25T11:32:07.237Z,28.53
2023-05-25T11:34:35.830Z,28.47
2023-05-25T11:37:05.155Z,28.45
2023-05-25T11:39:33.785Z,28.41
2023-05-25T11:42:09.153Z,28.40
2023-05-25T11:44:39.011Z,28.36
2023-05-25T11:47:15.398Z,28.34
2023-05-25T11:49:48.008Z,28.33
2023-05-25T11:52:20.812Z,28.31
2023-05-25T11:54:49.281Z,28.29
2023-05-25T11:57:26.728Z,28.29
2023-05-25T11:59:58.272Z,28.26
2023-05-25T12:02:27.276Z,28.26
2023-05-25T12:05:01.054Z,28.24
2023-05-25T12:07:30.795Z,28.24
2023-05-25T12:10:08.198Z,28.23
2023-05-25T12:12:50.645Z,28.24
2023-05-25T12:15:23.657Z,28.25
2023-05-25T12:17:53.268Z,28.25
2023-05-25T12:20:22.806Z,28.24
2023-05-25T12:22:51.990Z,28.23
2023-05-25T12:25:22.874Z,28.24
2023-05-25T12:28:10.673Z,28.24
2023-05-25T12:30:39.283Z,28.21
2023-05-25T12:33:08.391Z,28.22
2023-05-25T12:35:48.484Z,28.20
2023-05-25T12:38:19.921Z,28.20
2023-05-25T12:40:48.777Z,28.20
2023-05-25T12:43:18.444Z,28.18
2023-05-25T12:45:46.996Z,28.16
2023-05-25T12:48:15.537Z,28.16
2023-05-25T12:51:00.188Z,28.16
2023-05-25T12:53:30.007Z,28.16
2023-05-25T12:56:05.677Z,28.16
2023-05-25T12:58:34.216Z,28.15
2023-05-25T13:01:02.699Z,28.15
2023-05-25T13:03:31.852Z,28.14
2023-05-25T13:06:03.961Z,28.14
2023-05-25T13:08:32.521Z,28.14
2023-05-25T13:11:02.267Z,28.16
2023-05-25T13:13:30.760Z,28.17
2023-05-25T13:15:59.493Z,28.18
2023-05-25T13:18:27.926Z,28.19
2023-05-25T13:20:57.656Z,28.20
2023-05-25T13:23:26.641Z,28.20
2023-05-25T13:25:55.122Z,28.21
2023-05-25T13:28:23.906Z,28.23
2023-05-25T13:30:52.549Z,28.24
2023-05-25T13:33:21.052Z,28.24
2023-05-25T13:36:09.042Z,28.25
2023-05-25T13:38:39.262Z,28.26
2023-05-25T13:41:08.032Z,28.26
2023-05-25T13:43:36.524Z,28.27
2023-05-25T13:46:05.202Z,28.27
2023-05-25T13:48:34.081Z,28.28
2023-05-25T13:51:04.313Z,28.28
2023-05-25T13:53:33.139Z,28.29
2023-05-25T13:56:02.070Z,28.29
2023-05-25T13:58:30.598Z,28.28
2023-05-25T14:00:59.075Z,28.28
2023-05-25T14:03:27.617Z,28.27
2023-05-25T14:05:56.690Z,28.27
2023-05-25T14:08:25.186Z,28.26
2023-05-25T14:10:54.158Z,28.26
2023-05-25T14:13:22.718Z,28.26
2023-05-25T14:15:51.223Z,28.25
2023-05-25T14:18:19.749Z,28.24
2023-05-25T14:20:48.554Z,28.22
2023-05-25T14:23:18.321Z,28.20
2023-05-25T14:25:47.801Z,28.20
2023-05-25T14:28:16.398Z,28.18
2023-05-25T14:30:45.499Z,28.17
2023-05-25T14:33:15.752Z,28.14
2023-05-25T14:35:44.644Z,28.12
2023-05-25T14:38:13.316Z,28.12
2023-05-25T14:40:41.809Z,28.11
2023-05-25T14:43:10.237Z,28.10
2023-05-25T14:45:38.726Z,28.09
2023-05-25T14:48:16.594Z,28.08
2023-05-25T14:50:46.375Z,28.06
2023-05-25T14:53:14.810Z,28.05
2023-05-25T14:55:43.691Z,28.04
2023-05-25T14:58:12.535Z,28.04
2023-05-25T15:00:41.234Z,28.04
2023-05-25T15:03:09.789Z,28.03
2023-05-25T15:05:38.341Z,28.00
2023-05-25T15:08:07.051Z,27.99
2023-05-25T15:10:35.513Z,27.96
2023-05-25T15:13:04.028Z,27.94
2023-05-25T15:15:32.480Z,27.93
2023-05-25T15:18:01.007Z,27.94
2023-05-25T15:20:29.487Z,27.94
2023-05-25T15:22:58.254Z,27.91
2023-05-25T15:27:58.367Z,27.89
2023-05-25T15:30:28.746Z,27.90
2023-05-25T15:32:57.327Z,27.88
2023-05-25T15:35:31.897Z,27.88
2023-05-25T15:38:01.177Z,27.87
2023-05-25T15:40:30.031Z,27.87
2023-05-25T15:42:58.635Z,27.89
2023-05-25T15:45:27.300Z,27.88
2023-05-25T15:47:55.826Z,27.87
2023-05-25T15:50:25.005Z,27.86
2023-05-25T15:52:53.558Z,27.85
2023-05-25T15:55:22.154Z,27.85
2023-05-25T15:57:50.584Z,27.84
2023-05-25T16:00:19.309Z,27.81
2023-05-25T16:02:47.822Z,27.77
2023-05-25T16:05:16.600Z,27.72
2023-05-25T16:07:45.084Z,27.64
2023-05-25T16:10:13.599Z,27.55
2023-05-25T16:12:42.080Z,27.44
2023-05-25T16:15:11.600Z,27.29
2023-05-25T16:17:40.040Z,27.14
2023-05-25T16:23:50.328Z,26.35
2023-05-25T16:26:18.952Z,26.05
2023-05-25T16:28:47.399Z,25.78
2023-05-25T16:31:16.694Z,25.65
2023-05-25T16:33:46.434Z,25.52
2023-05-25T16:36:15.185Z,25.42
2023-05-25T16:38:45.022Z,25.35
2023-05-25T16:41:13.838Z,25.30
2023-05-25T16:43:42.318Z,25.26
2023-05-25T16:46:10.811Z,25.26
2023-05-25T16:48:39.265Z,25.25
2023-05-25T16:51:08.732Z,25.25
2023-05-25T16:53:37.217Z,25.24
2023-05-25T16:56:05.908Z,25.23
2023-05-25T16:58:36.130Z,25.23
2023-05-25T17:01:04.724Z,25.23
2023-05-25T17:03:34.074Z,25.23
2023-05-25T17:06:02.620Z,25.22
2023-05-25T17:08:31.343Z,25.20
2023-05-25T17:10:59.747Z,25.22
2023-05-25T17:13:28.225Z,25.22
2023-05-25T17:15:56.743Z,25.24
2023-05-25T17:18:25.965Z,25.26
2023-05-25T17:20:54.959Z,25.27
2023-05-25T17:23:25.189Z,25.27
2023-05-25T17:25:53.637Z,25.28
2023-05-25T17:28:22.107Z,25.27
2023-05-25T17:30:50.595Z,25.28
2023-05-25T17:33:19.124Z,25.30
2023-05-25T17:35:47.601Z,25.31
2023-05-25T17:38:16.536Z,25.31
2023-05-25T17:40:47.060Z,25.31
2023-05-25T17:43:18.015Z,25.31
2023-05-25T17:45:47.032Z,25.30
2023-05-25T17:48:15.940Z,25.30
2023-05-25T17:50:44.511Z,25.28
2023-05-25T17:53:13.824Z,25.31
2023-05-25T17:55:42.384Z,25.31
2023-05-25T17:58:10.903Z,25.32
2023-05-25T18:00:39.336Z,25.34
2023-05-25T18:03:07.959Z,25.35
2023-05-25T18:05:36.589Z,25.32
2023-05-25T18:08:06.011Z,25.35
2023-05-25T18:10:34.554Z,25.33
2023-05-25T18:13:02.988Z,25.35
2023-05-25T18:15:32.305Z,25.33
2023-05-25T18:18:01.850Z,25.36
2023-05-25T18:20:30.373Z,25.37
2023-05-25T18:23:00.367Z,25.39
2023-05-25T18:25:28.885Z,25.41
2023-05-25T18:27:57.310Z,25.41
2023-05-25T18:30:25.886Z,25.43
2023-05-25T18:32:54.359Z,25.46
2023-05-25T18:35:22.953Z,25.50
2023-05-25T18:37:51.407Z,25.52
2023-05-25T18:40:19.889Z,25.54
2023-05-25T18:42:48.340Z,25.57
2023-05-25T18:45:16.857Z,25.59
2023-05-25T18:47:45.393Z,25.61
2023-05-25T18:50:13.927Z,25.61
2023-05-25T18:52:42.638Z,25.62
2023-05-25T18:55:11.339Z,25.66
2023-05-25T18:57:39.816Z,25.66
2023-05-25T19:00:09.827Z,25.67
2023-05-25T19:02:39.662Z,25.68
2023-05-25T19:05:08.766Z,25.70
2023-05-25T19:07:54.743Z,25.71
2023-05-25T19:10:27.493Z,25.71
2023-05-25T19:12:56.373Z,25.72
2023-05-25T19:15:24.829Z,25.71
2023-05-25T19:17:53.767Z,25.69
2023-05-25T19:20:22.288Z,25.70
2023-05-25T19:22:50.765Z,25.69
2023-05-25T19:25:19.268Z,25.68
2023-05-25T19:27:47.791Z,25.68
2023-05-25T19:30:16.456Z,25.68
2023-05-25T19:32:44.950Z,25.69
2023-05-25T19:35:13.423Z,25.68
2023-05-25T19:37:42.335Z,25.69
2023-05-25T19:40:11.952Z,25.67
2023-05-25T19:42:40.418Z,25.67
2023-05-25T19:45:09.218Z,25.67
2023-05-25T19:47:37.926Z,25.67
2023-05-25T19:50:06.840Z,25.67
2023-05-25T19:52:35.317Z,25.67
2023-05-25T19:55:03.836Z,25.68
2023-05-25T19:57:32.296Z,25.67
2023-05-25T20:00:00.812Z,25.67
2023-05-25T20:02:29.460Z,25.66
2023-05-25T20:04:57.986Z,25.68
2023-05-25T20:07:26.450Z,25.68
2023-05-25T20:09:54.894Z,25.69
2023-05-25T20:12:23.374Z,25.69
2023-05-25T20:14:51.900Z,25.70
2023-05-25T20:17:20.385Z,25.70
2023-05-25T20:19:48.850Z,25.72
2023-05-25T20:22:17.360Z,25.73
2023-05-25T20:24:45.813Z,25.75
2023-05-25T20:27:14.518Z,25.76
2023-05-25T20:29:44.522Z,25.78
2023-05-25T20:32:13.058Z,25.80
2023-05-25T20:34:41.507Z,25.80
2023-05-25T20:37:09.958Z,25.82
2023-05-25T20:39:38.504Z,25.81
2023-05-25T20:42:07.773Z,25.80
2023-05-25T20:44:36.469Z,25.81
2023-05-25T20:47:05.187Z,25.81
2023-05-25T20:49:33.682Z,25.81
2023-05-25T20:52:02.189Z,25.81
2023-05-25T20:54:31.014Z,25.82
2023-05-25T20:57:00.288Z,25.83
2023-05-25T20:59:32.433Z,25.84
2023-05-25T21:02:01.045Z,25.86
2023-05-25T21:04:31.647Z,25.87
2023-05-25T21:07:00.374Z,25.87
2023-05-25T21:09:30.502Z,25.88
2023-05-25T21:11:59.974Z,25.89
2023-05-25T21:14:28.460Z,25.88
2023-05-25T21:16:56.977Z,25.87
2023-05-25T21:19:25.530Z,25.85
2023-05-25T21:21:54.171Z,25.87
2023-05-25T21:24:23.673Z,25.87
2023-05-25T21:26:52.316Z,25.90
2023-05-25T21:29:20.851Z,25.92
2023-05-25T21:31:49.493Z,25.93
2023-05-25T21:34:18.980Z,25.95
2023-05-25T21:36:47.546Z,25.94
2023-05-25T21:39:16.029Z,25.96
2023-05-25T21:41:44.781Z,25.97
2023-05-25T21:44:13.445Z,25.97
2023-05-25T21:46:41.964Z,25.97
2023-05-25T21:49:10.466Z,25.96
2023-05-25T21:51:38.974Z,25.97
2023-05-25T21:54:07.554Z,25.95
2023-05-25T21:56:36.210Z,25.96
2023-05-25T21:59:05.060Z,25.96
2023-05-25T22:01:33.625Z,25.94
2023-05-25T22:04:02.139Z,25.94
2023-05-25T22:06:30.597Z,25.94
2023-05-25T22:08:59.239Z,25.91
2023-05-25T22:11:27.807Z,25.90
2023-05-25T22:13:56.476Z,25.91
2023-05-25T22:16:25.028Z,25.91
2023-05-25T22:18:54.017Z,25.90
2023-05-25T22:21:22.485Z,25.92
2023-05-25T22:23:52.046Z,25.91
2023-05-25T22:26:20.631Z,25.90
2023-05-25T22:28:49.205Z,25.87
2023-05-25T22:31:17.873Z,25.86
2023-05-25T22:33:46.597Z,25.85
2023-05-25T22:36:15.631Z,25.84
2023-05-25T22:38:44.372Z,25.83
2023-05-25T22:41:13.165Z,25.81
2023-05-25T22:43:41.636Z,25.81
2023-05-25T22:46:10.623Z,25.80
2023-05-25T22:48:39.144Z,25.80
2023-05-25T22:51:08.186Z,25.80
2023-05-25T22:53:36.692Z,25.77
2023-05-25T22:56:05.742Z,25.77
2023-05-25T22:58:34.224Z,25.79
2023-05-25T23:01:02.686Z,25.78
2023-05-25T23:03:31.394Z,25.80
2023-05-25T23:06:00.006Z,25.80
2023-05-25T23:08:28.756Z,25.80
2023-05-25T23:10:57.740Z,25.80
2023-05-25T23:13:26.212Z,25.82
2023-05-25T23:15:56.252Z,25.82
2023-05-25T23:18:24.800Z,25.83
2023-05-25T23:20:53.303Z,25.85
2023-05-25T23:23:21.808Z,25.86
2023-05-25T23:25:50.537Z,25.86
2023-05-25T23:28:19.120Z,25.90
2023-05-25T23:30:47.655Z,25.92
2023-05-25T23:33:16.246Z,25.94
2023-05-25T23:35:44.992Z,25.95
2023-05-25T23:38:13.920Z,25.98
2023-05-25T23:40:42.415Z,25.98
2023-05-25T23:43:10.904Z,26.02
2023-05-25T23:45:39.558Z,26.04
2023-05-25T23:48:08.240Z,26.07
2023-05-25T23:50:36.935Z,26.09
2023-05-25T23:53:05.424Z,26.11
2023-05-25T23:55:33.901Z,26.13
2023-05-25T23:58:02.391Z,26.15
